createdAt,value
2018-12-05T00:02:20.056Z,81.40
2018-12-05T00:04:48.089Z,81.10
2018-12-05T00:07:16.211Z,81.00
2018-12-05T00:09:49.419Z,80.10
2018-12-05T00:12:17.533Z,80.60
2018-12-05T00:14:45.672Z,80.00
2018-12-05T00:17:13.808Z,81.30
2018-12-05T00:19:46.948Z,81.30
2018-12-05T00:22:15.051Z,80.30
2018-12-05T00:24:43.228Z,81.10
2018-12-05T00:27:11.599Z,80.10
2018-12-05T00:29:44.849Z,81.10
2018-12-05T00:32:13.040Z,80.80
2018-12-05T00:34:41.107Z,79.90
2018-12-05T00:37:09.321Z,79.10
2018-12-05T00:39:37.483Z,78.60
2018-12-05T00:42:05.773Z,77.80
2018-12-05T00:44:33.932Z,78.80
2018-12-05T00:47:02.129Z,78.40
2018-12-05T00:49:30.275Z,79.00
2018-12-05T00:51:58.519Z,79.80
2018-12-05T00:54:26.720Z,79.70
2018-12-05T00:56:54.836Z,80.70
2018-12-05T00:59:23.035Z,81.00
2018-12-05T01:01:51.209Z,80.00
2018-12-05T01:04:19.422Z,80.00
2018-12-05T01:06:48.507Z,80.90
2018-12-05T01:09:16.759Z,81.60
2018-12-05T01:11:44.870Z,81.00
2018-12-05T01:14:12.928Z,83.30
2018-12-05T01:16:41.103Z,82.60
2018-12-05T01:19:14.244Z,82.00
2018-12-05T01:21:42.376Z,82.00
2018-12-05T01:24:10.497Z,80.20
2018-12-05T01:26:38.653Z,81.00
2018-12-05T01:29:06.797Z,80.30
2018-12-05T01:31:34.977Z,79.50
2018-12-05T01:34:03.098Z,78.90
2018-12-05T01:36:31.369Z,79.30
2018-12-05T01:39:09.463Z,79.20
2018-12-05T01:41:37.673Z,80.50
2018-12-05T01:44:05.917Z,78.90
2018-12-05T01:46:34.257Z,80.60
2018-12-05T01:49:02.404Z,79.50
2018-12-05T01:51:30.473Z,80.00
2018-12-05T01:53:58.741Z,80.00
2018-12-05T01:56:26.928Z,81.10
2018-12-05T01:58:55.214Z,80.80
2018-12-05T02:01:23.337Z,80.10
2018-12-05T02:03:51.478Z,79.50
2018-12-05T02:06:20.279Z,80.00
2018-12-05T02:08:48.504Z,79.60
2018-12-05T02:11:16.735Z,79.20
2018-12-05T02:13:46.246Z,80.20
2018-12-05T02:16:14.418Z,79.80
2018-12-05T02:18:47.523Z,80.10
2018-12-05T02:21:16.649Z,79.10
2018-12-05T02:23:44.770Z,78.80
2018-12-05T02:26:12.917Z,80.00
2018-12-05T02:28:45.987Z,79.90
2018-12-05T02:31:14.228Z,82.40
2018-12-05T02:33:42.417Z,81.20
2018-12-05T02:36:10.537Z,80.70
2018-12-05T02:38:38.961Z,81.50
2018-12-05T02:41:07.146Z,82.70
2018-12-05T02:43:35.311Z,83.00
2018-12-05T02:46:03.518Z,81.50
2018-12-05T02:48:31.755Z,81.20
2018-12-05T02:50:59.937Z,80.00
2018-12-05T02:53:28.065Z,80.60
2018-12-05T02:55:56.224Z,82.40
2018-12-05T02:58:24.373Z,82.40
2018-12-05T03:00:52.531Z,80.70
2018-12-05T03:03:20.642Z,82.20
2018-12-05T03:05:48.808Z,81.50
2018-12-05T03:08:16.948Z,82.40
2018-12-05T03:10:45.093Z,81.60
2018-12-05T03:13:13.314Z,81.00
2018-12-05T03:15:41.416Z,81.30
2018-12-05T03:18:28.122Z,80.10
2018-12-05T03:20:56.207Z,80.10
2018-12-05T03:23:24.358Z,81.10
2018-12-05T03:25:52.541Z,81.10
2018-12-05T03:28:20.742Z,80.00
2018-12-05T03:30:48.977Z,80.10
2018-12-05T03:33:17.303Z,80.20
2018-12-05T03:35:45.680Z,80.10
2018-12-05T03:38:18.819Z,81.70
2018-12-05T03:40:46.953Z,82.10
2018-12-05T03:43:15.125Z,80.10
2018-12-05T03:45:43.228Z,80.00
2018-12-05T03:48:11.349Z,80.00
2018-12-05T03:50:39.369Z,81.30
2018-12-05T03:53:07.528Z,80.10
2018-12-05T03:55:35.660Z,81.80
2018-12-05T03:58:27.071Z,80.70
2018-12-05T04:00:55.219Z,80.00
2018-12-05T04:03:23.403Z,80.90
2018-12-05T04:05:51.589Z,81.70
2018-12-05T04:08:19.857Z,81.90
2018-12-05T04:10:47.940Z,81.80
2018-12-05T04:13:16.059Z,82.10
2018-12-05T04:15:44.166Z,83.60
2018-12-05T04:18:26.343Z,82.20
2018-12-05T04:20:54.436Z,83.80
2018-12-05T04:23:22.553Z,82.30
2018-12-05T04:25:50.737Z,82.70
2018-12-05T04:28:18.807Z,84.10
2018-12-05T04:30:47.015Z,84.30
2018-12-05T04:33:15.183Z,83.70
2018-12-05T04:35:43.291Z,83.40
2018-12-05T04:38:11.427Z,84.60
2018-12-05T04:40:39.543Z,84.60
2018-12-05T04:43:07.714Z,84.30
2018-12-05T04:45:35.859Z,83.40
2018-12-05T04:48:04.170Z,82.50
2018-12-05T04:50:32.380Z,82.60
2018-12-05T04:53:00.474Z,83.70
2018-12-05T04:55:28.609Z,84.50
2018-12-05T04:57:56.666Z,84.70
2018-12-05T05:00:25.612Z,84.60
2018-12-05T05:02:53.719Z,84.20
2018-12-05T05:05:21.817Z,84.10
2018-12-05T05:07:59.519Z,83.00
2018-12-05T05:10:27.773Z,83.80
2018-12-05T05:12:56.122Z,84.40
2018-12-05T05:15:24.254Z,84.50
2018-12-05T05:17:52.644Z,84.60
2018-12-05T05:20:20.822Z,84.50
2018-12-05T05:22:49.328Z,84.40
2018-12-05T05:25:17.493Z,85.60
2018-12-05T05:27:47.462Z,84.60
2018-12-05T05:30:15.634Z,84.60
2018-12-05T05:32:45.911Z,82.70
2018-12-05T05:35:14.141Z,82.10
2018-12-05T05:37:43.060Z,82.60
2018-12-05T05:40:11.235Z,82.10
2018-12-05T05:42:39.424Z,84.20
2018-12-05T05:45:07.716Z,82.10
2018-12-05T05:47:36.581Z,81.70
2018-12-05T05:50:05.483Z,82.40
2018-12-05T05:52:33.610Z,80.60
2018-12-05T05:55:02.581Z,81.40
2018-12-05T05:57:30.759Z,82.00
2018-12-05T05:59:58.931Z,83.40
2018-12-05T06:02:27.131Z,82.50
2018-12-05T06:04:55.327Z,83.40
2018-12-05T06:07:23.565Z,83.60
2018-12-05T06:09:51.938Z,83.70
2018-12-05T06:12:20.118Z,84.50
2018-12-05T06:14:48.257Z,84.50
2018-12-05T06:17:17.220Z,84.50
2018-12-05T06:19:45.556Z,84.60
2018-12-05T06:22:15.116Z,83.60
2018-12-05T06:24:43.275Z,84.30
2018-12-05T06:27:12.876Z,84.40
2018-12-05T06:29:41.920Z,84.20
2018-12-05T06:32:10.183Z,85.10
2018-12-05T06:34:38.438Z,85.30
2018-12-05T06:37:07.812Z,86.00
2018-12-05T06:39:35.996Z,86.40
2018-12-05T06:42:04.253Z,86.40
2018-12-05T06:44:32.343Z,86.60
2018-12-05T06:47:00.498Z,86.00
2018-12-05T06:49:28.745Z,85.70
2018-12-05T06:51:56.873Z,86.60
2018-12-05T06:54:25.014Z,87.30
2018-12-05T06:56:53.120Z,87.00
2018-12-05T06:59:21.416Z,87.10
2018-12-05T07:01:49.586Z,86.50
2018-12-05T07:04:17.667Z,86.40
2018-12-05T07:06:45.759Z,86.70
2018-12-05T07:09:13.798Z,86.30
2018-12-05T07:11:41.997Z,85.80
2018-12-05T07:14:10.118Z,85.60
2018-12-05T07:16:38.727Z,86.10
2018-12-05T07:19:06.916Z,84.90
2018-12-05T07:21:35.184Z,86.10
2018-12-05T07:24:03.583Z,86.10
2018-12-05T07:26:31.855Z,84.60
2018-12-05T07:29:00.068Z,84.60
2018-12-05T07:31:28.275Z,84.70
2018-12-05T07:33:58.335Z,84.30
2018-12-05T07:36:27.990Z,84.30
2018-12-05T07:38:56.244Z,84.70
2018-12-05T07:41:24.544Z,85.40
2018-12-05T07:43:52.696Z,84.70
2018-12-05T07:46:24.341Z,84.60
2018-12-05T07:48:55.514Z,84.20
2018-12-05T07:51:23.672Z,85.10
2018-12-05T07:53:51.814Z,85.20
2018-12-05T07:56:21.002Z,84.20
2018-12-05T07:58:49.331Z,84.60
2018-12-05T08:01:17.524Z,84.50
2018-12-05T08:03:45.743Z,84.50
2018-12-05T08:06:13.925Z,84.60
2018-12-05T08:08:42.819Z,84.60
2018-12-05T08:11:11.019Z,84.70
2018-12-05T08:13:39.346Z,84.70
2018-12-05T08:16:07.480Z,84.80
2018-12-05T08:18:35.602Z,84.30
2018-12-05T08:21:03.722Z,84.80
2018-12-05T08:23:31.830Z,84.00
2018-12-05T08:25:59.981Z,84.00
2018-12-05T08:28:28.101Z,83.00
2018-12-05T08:30:56.168Z,82.20
2018-12-05T08:33:24.287Z,82.00
2018-12-05T08:35:52.562Z,80.70
2018-12-05T08:38:20.683Z,80.00
2018-12-05T08:40:48.923Z,80.90
2018-12-05T08:43:17.160Z,80.20
2018-12-05T08:45:45.294Z,80.30
2018-12-05T08:48:13.751Z,80.40
2018-12-05T08:50:41.870Z,79.90
2018-12-05T08:53:10.097Z,80.30
2018-12-05T08:55:38.219Z,80.40
2018-12-05T08:58:15.851Z,79.30
2018-12-05T09:00:43.914Z,79.70
2018-12-05T09:03:12.026Z,80.30
2018-12-05T09:05:40.275Z,79.70
2018-12-05T09:08:08.402Z,79.60
2018-12-05T09:10:36.672Z,80.10
2018-12-05T09:13:05.825Z,80.10
2018-12-05T09:15:34.025Z,79.60
2018-12-05T09:18:02.123Z,79.00
2018-12-05T09:20:30.355Z,78.50
2018-12-05T09:22:58.515Z,78.50
2018-12-05T09:25:26.612Z,78.00
2018-12-05T09:27:54.779Z,77.00
2018-12-05T09:30:22.991Z,77.10
2018-12-05T09:32:51.237Z,77.60
2018-12-05T09:35:20.760Z,76.50
2018-12-05T09:37:48.783Z,76.80
2018-12-05T09:40:16.953Z,76.80
2018-12-05T09:42:45.073Z,76.30
2018-12-05T09:45:14.643Z,75.90
2018-12-05T09:47:42.862Z,75.90
2018-12-05T09:50:11.220Z,76.10
2018-12-05T09:52:39.270Z,76.10
2018-12-05T09:55:07.623Z,75.60
2018-12-05T09:57:35.653Z,74.40
2018-12-05T10:00:04.864Z,73.60
2018-12-05T10:02:33.047Z,73.90
2018-12-05T10:05:01.240Z,73.00
2018-12-05T10:07:29.408Z,72.30
2018-12-05T10:10:07.826Z,72.20
2018-12-05T10:12:35.949Z,71.70
2018-12-05T10:15:05.713Z,71.90
2018-12-05T10:17:33.843Z,71.30
2018-12-05T10:20:02.086Z,71.50
2018-12-05T10:22:30.271Z,71.10
2018-12-05T10:24:58.436Z,71.10
2018-12-05T10:27:26.577Z,71.50
2018-12-05T10:29:59.722Z,71.30
2018-12-05T10:32:27.836Z,71.40
2018-12-05T10:34:55.932Z,71.20
2018-12-05T10:37:24.648Z,72.30
2018-12-05T10:39:52.834Z,72.10
2018-12-05T10:42:21.005Z,72.30
2018-12-05T10:44:49.108Z,72.50
2018-12-05T10:47:17.250Z,72.00
2018-12-05T10:49:45.529Z,72.60
2018-12-05T10:52:13.875Z,72.50
2018-12-05T10:54:42.030Z,72.00
2018-12-05T10:57:10.168Z,72.30
2018-12-05T10:59:38.501Z,71.40
2018-12-05T11:02:12.213Z,72.00
2018-12-05T11:04:46.015Z,71.50
2018-12-05T11:07:19.824Z,71.40
2018-12-05T11:09:53.628Z,71.50
2018-12-05T11:12:27.447Z,71.60
2018-12-05T11:15:01.325Z,71.50
2018-12-05T11:17:35.038Z,71.50
2018-12-05T11:20:09.534Z,71.20
2018-12-05T11:22:43.272Z,70.50
2018-12-05T11:25:15.551Z,70.50
2018-12-05T11:27:43.737Z,70.70
2018-12-05T11:30:12.016Z,70.70
2018-12-05T11:32:40.341Z,71.00
2018-12-05T11:35:08.731Z,70.10
2018-12-05T11:37:36.952Z,70.50
2018-12-05T11:40:05.912Z,69.70
2018-12-05T11:42:34.172Z,69.90
2018-12-05T11:45:02.283Z,69.60
2018-12-05T11:47:30.452Z,69.30
2018-12-05T11:49:58.590Z,69.00
2018-12-05T11:52:27.570Z,68.80
2018-12-05T11:54:56.224Z,69.10
2018-12-05T11:57:24.387Z,69.60
2018-12-05T11:59:52.583Z,69.60
2018-12-05T12:02:22.400Z,69.20
2018-12-05T12:04:50.727Z,69.80
2018-12-05T12:07:18.838Z,69.00
2018-12-05T12:09:47.023Z,69.10
2018-12-05T12:12:20.824Z,69.40
2018-12-05T12:14:48.899Z,69.10
2018-12-05T12:17:17.057Z,69.40
2018-12-05T12:19:45.181Z,69.40
2018-12-05T12:22:13.251Z,69.90
2018-12-05T12:24:41.628Z,69.40
2018-12-05T12:27:09.726Z,69.80
2018-12-05T12:29:38.215Z,69.90
2018-12-05T12:32:06.380Z,70.00
2018-12-05T12:34:34.431Z,70.50
2018-12-05T12:37:02.512Z,70.00
2018-12-05T12:39:30.634Z,69.70
2018-12-05T12:41:59.493Z,69.50
2018-12-05T12:44:27.698Z,69.50
2018-12-05T12:46:55.873Z,69.30
2018-12-05T12:49:24.015Z,68.70
2018-12-05T12:51:52.376Z,67.90
2018-12-05T12:54:20.535Z,67.60
2018-12-05T12:56:48.961Z,68.00
2018-12-05T12:59:17.495Z,68.40
2018-12-05T13:01:45.705Z,69.00
2018-12-05T13:04:14.018Z,68.90
2018-12-05T13:06:42.198Z,69.00
2018-12-05T13:09:10.781Z,68.90
2018-12-05T13:11:38.907Z,68.90
2018-12-05T13:14:07.003Z,69.40
2018-12-05T13:16:35.737Z,69.50
2018-12-05T13:19:03.983Z,69.60
2018-12-05T13:21:32.962Z,68.70
2018-12-05T13:24:01.124Z,69.20
2018-12-05T13:26:29.297Z,69.50
2018-12-05T13:28:57.471Z,70.10
2018-12-05T13:31:27.378Z,69.80
2018-12-05T13:33:55.503Z,69.50
2018-12-05T13:36:23.635Z,69.90
2018-12-05T13:38:51.806Z,70.20
2018-12-05T13:41:19.988Z,70.10
2018-12-05T13:43:48.146Z,70.00
2018-12-05T13:46:16.420Z,70.20
2018-12-05T13:48:45.349Z,70.20
2018-12-05T13:51:13.584Z,70.60
2018-12-05T13:53:41.825Z,71.10
2018-12-05T13:56:09.963Z,71.10
2018-12-05T13:58:38.314Z,70.60
2018-12-05T14:01:06.525Z,70.80
2018-12-05T14:03:34.610Z,70.80
2018-12-05T14:06:02.962Z,70.40
2018-12-05T14:08:31.151Z,70.60
2018-12-05T14:10:59.258Z,71.00
2018-12-05T14:13:27.454Z,70.80
2018-12-05T14:15:55.570Z,70.90
2018-12-05T14:18:28.942Z,70.90
2018-12-05T14:20:57.147Z,71.10
2018-12-05T14:23:25.266Z,72.50
2018-12-05T14:25:53.458Z,71.80
2018-12-05T14:28:21.824Z,71.80
2018-12-05T14:30:49.924Z,71.40
2018-12-05T14:33:18.227Z,71.80
2018-12-05T14:35:46.523Z,71.80
2018-12-05T14:38:14.745Z,71.80
2018-12-05T14:40:42.923Z,71.80
2018-12-05T14:43:11.053Z,71.80
2018-12-05T14:45:39.180Z,71.80
2018-12-05T14:48:07.347Z,71.80
2018-12-05T14:50:35.624Z,71.80
2018-12-05T14:53:03.860Z,71.80
2018-12-05T14:55:32.048Z,71.40
2018-12-05T14:58:02.237Z,71.70
2018-12-05T15:00:30.927Z,72.60
2018-12-05T15:02:59.168Z,72.90
2018-12-05T15:05:27.371Z,73.00
2018-12-05T15:07:55.501Z,73.30
2018-12-05T15:10:23.639Z,73.10
2018-12-05T15:12:51.785Z,74.10
2018-12-05T15:15:19.965Z,73.90
2018-12-05T15:17:48.124Z,74.10
2018-12-05T15:20:16.293Z,74.80
2018-12-05T15:22:45.654Z,74.00
2018-12-05T15:25:13.808Z,74.70
2018-12-05T15:27:41.923Z,74.90
2018-12-05T15:30:10.294Z,74.40
2018-12-05T15:32:38.434Z,75.20
2018-12-05T15:35:06.831Z,74.50
2018-12-05T15:37:34.974Z,76.00
2018-12-05T15:40:03.423Z,76.50
2018-12-05T15:42:31.950Z,76.50
2018-12-05T15:45:00.118Z,76.50
2018-12-05T15:47:31.333Z,76.50
2018-12-05T15:49:59.501Z,76.50
2018-12-05T15:52:29.585Z,76.40
2018-12-05T15:54:57.786Z,76.40
2018-12-05T15:57:25.991Z,76.40
2018-12-05T15:59:54.174Z,76.40
2018-12-05T16:02:22.346Z,76.40
2018-12-05T16:04:50.549Z,76.40
2018-12-05T16:07:19.775Z,76.40
2018-12-05T16:09:47.861Z,76.40
2018-12-05T16:12:16.035Z,76.40
2018-12-05T16:14:44.174Z,76.40
2018-12-05T16:17:12.380Z,76.10
2018-12-05T16:19:40.556Z,76.10
2018-12-05T16:22:08.888Z,76.20
2018-12-05T16:24:36.998Z,76.40
2018-12-05T16:27:05.263Z,76.50
2018-12-05T16:29:33.465Z,76.60
2018-12-05T16:32:01.627Z,76.60
2018-12-05T16:34:29.865Z,76.50
2018-12-05T16:36:58.017Z,76.60
2018-12-05T16:39:26.371Z,76.50
2018-12-05T16:41:54.513Z,76.50
2018-12-05T16:44:22.627Z,76.30
2018-12-05T16:46:51.087Z,76.50
2018-12-05T16:49:19.467Z,77.30
2018-12-05T16:51:47.648Z,76.60
2018-12-05T16:54:16.380Z,76.40
2018-12-05T16:56:44.549Z,76.50
2018-12-05T16:59:14.511Z,76.50
2018-12-05T17:01:42.734Z,76.40
2018-12-05T17:04:10.978Z,76.40
2018-12-05T17:06:39.280Z,76.40
2018-12-05T17:09:08.013Z,76.40
2018-12-05T17:11:36.182Z,75.90
2018-12-05T17:14:04.566Z,76.40
2018-12-05T17:16:32.747Z,76.40
2018-12-05T17:19:01.125Z,75.90
2018-12-05T17:21:29.316Z,77.30
2018-12-05T17:23:57.467Z,77.80
2018-12-05T17:26:25.580Z,77.50
2018-12-05T17:28:53.773Z,77.30
2018-12-05T17:31:22.008Z,77.70
2018-12-05T17:33:50.096Z,78.00
2018-12-05T17:36:18.365Z,78.50
2018-12-05T17:38:57.148Z,77.90
2018-12-05T17:41:26.371Z,77.40
2018-12-05T17:43:54.579Z,77.20
2018-12-05T17:46:22.720Z,77.10
2018-12-05T17:48:51.085Z,76.50
2018-12-05T17:51:19.349Z,76.50
2018-12-05T17:53:47.645Z,77.20
2018-12-05T17:56:15.797Z,76.60
2018-12-05T17:58:44.754Z,76.90
2018-12-05T18:01:12.972Z,77.60
2018-12-05T18:03:41.962Z,77.40
2018-12-05T18:06:10.247Z,77.90
2018-12-05T18:08:38.540Z,78.80
2018-12-05T18:11:06.727Z,79.30
2018-12-05T18:13:34.841Z,79.40
2018-12-05T18:16:03.031Z,79.60
2018-12-05T18:18:31.406Z,80.30
2018-12-05T18:21:00.442Z,80.50
2018-12-05T18:23:29.628Z,80.60
2018-12-05T18:25:57.859Z,80.30
2018-12-05T18:28:26.156Z,80.70
2018-12-05T18:30:54.407Z,80.50
2018-12-05T18:33:22.512Z,80.50
2018-12-05T18:35:50.632Z,80.70
2018-12-05T18:38:19.032Z,80.50
2018-12-05T18:40:47.163Z,80.40
2018-12-05T18:43:15.415Z,80.20
2018-12-05T18:45:43.755Z,80.00
2018-12-05T18:48:12.135Z,80.20
2018-12-05T18:50:40.200Z,80.40
2018-12-05T18:53:08.291Z,80.10
2018-12-05T18:55:36.469Z,80.10
2018-12-05T18:58:05.627Z,80.60
2018-12-05T19:00:33.801Z,79.20
2018-12-05T19:03:02.022Z,79.30
2018-12-05T19:05:30.157Z,79.10
2018-12-05T19:08:00.058Z,79.40
2018-12-05T19:10:28.318Z,79.20
2018-12-05T19:13:02.206Z,79.60
2018-12-05T19:15:30.520Z,79.60
2018-12-05T19:17:58.906Z,80.80
2018-12-05T19:20:27.088Z,80.50
2018-12-05T19:22:55.152Z,80.80
2018-12-05T19:25:23.385Z,80.50
2018-12-05T19:27:52.379Z,79.80
2018-12-05T19:30:20.618Z,79.90
2018-12-05T19:32:49.097Z,79.40
2018-12-05T19:35:17.352Z,79.00
2018-12-05T19:37:45.497Z,78.50
2018-12-05T19:40:13.762Z,77.90
2018-12-05T19:42:41.962Z,78.10
2018-12-05T19:45:10.382Z,78.20
2018-12-05T19:47:44.479Z,78.50
2018-12-05T19:50:16.014Z,78.90
2018-12-05T19:52:47.557Z,78.80
2018-12-05T19:55:15.774Z,79.00
2018-12-05T19:57:47.466Z,79.10
2018-12-05T20:00:21.129Z,79.20
2018-12-05T20:02:57.209Z,79.20
2018-12-05T20:05:31.398Z,79.10
2018-12-05T20:08:02.900Z,79.10
2018-12-05T20:10:34.793Z,79.40
2018-12-05T20:13:10.201Z,79.10
2018-12-05T20:15:41.781Z,78.80
2018-12-05T20:18:15.975Z,78.80
2018-12-05T20:20:47.768Z,79.30
2018-12-05T20:23:22.806Z,78.90
2018-12-05T20:25:54.795Z,80.00
2018-12-05T20:28:26.822Z,78.90
2018-12-05T20:31:00.870Z,79.00
2018-12-05T20:33:47.674Z,79.60
2018-12-05T20:36:16.851Z,78.70
2018-12-05T20:38:45.057Z,78.30
2018-12-05T20:41:13.292Z,78.30
2018-12-05T20:43:41.600Z,77.70
2018-12-05T20:46:09.940Z,77.60
2018-12-05T20:48:38.363Z,77.50
2018-12-05T20:51:06.518Z,77.70
2018-12-05T20:53:35.460Z,77.40
2018-12-05T20:56:03.760Z,77.50
2018-12-05T20:58:31.998Z,77.70
2018-12-05T21:01:03.633Z,76.90
2018-12-05T21:03:38.141Z,77.30
2018-12-05T21:06:11.877Z,77.00
2018-12-05T21:08:43.909Z,76.90
2018-12-05T21:11:18.296Z,76.90
2018-12-05T21:13:50.246Z,77.20
2018-12-05T21:16:24.608Z,76.90
2018-12-05T21:18:58.852Z,76.90
2018-12-05T21:21:34.676Z,76.90
2018-12-05T21:24:04.232Z,76.80
2018-12-05T21:26:36.218Z,76.60
2018-12-05T21:29:08.275Z,76.70
2018-12-05T21:31:39.982Z,76.80
2018-12-05T21:34:14.448Z,77.30
2018-12-05T21:36:48.608Z,77.20
2018-12-05T21:39:19.877Z,76.80
2018-12-05T21:41:51.108Z,76.70
2018-12-05T21:44:24.008Z,76.80
2018-12-05T21:46:59.174Z,77.70
2018-12-05T21:49:31.105Z,76.70
2018-12-05T21:52:03.054Z,76.70
2018-12-05T21:54:38.685Z,76.80
2018-12-05T21:57:10.439Z,76.80
2018-12-05T21:59:44.994Z,76.10
2018-12-05T22:02:16.942Z,75.40
2018-12-05T22:04:52.426Z,75.80
2018-12-05T22:07:26.308Z,75.60
2018-12-05T22:09:58.154Z,75.70
2018-12-05T22:12:32.725Z,75.50
2018-12-05T22:15:05.313Z,76.60
2018-12-05T22:17:36.828Z,76.70
2018-12-05T22:20:09.376Z,76.70
2018-12-05T22:22:41.825Z,76.80
2018-12-05T22:25:15.883Z,76.90
2018-12-05T22:27:47.556Z,76.10
2018-12-05T22:30:21.634Z,76.20
2018-12-05T22:32:53.455Z,76.20
2018-12-05T22:42:57.531Z,76.40
2018-12-05T22:45:31.777Z,76.70
2018-12-05T22:48:04.073Z,76.70
2018-12-05T22:50:35.601Z,76.80
2018-12-05T22:53:05.930Z,77.20
2018-12-05T22:55:37.985Z,77.30
2018-12-05T22:58:13.392Z,77.60
2018-12-05T23:00:50.282Z,76.70
2018-12-05T23:03:22.237Z,76.60
2018-12-05T23:05:55.919Z,76.70
2018-12-05T23:08:30.183Z,76.70
2018-12-05T23:11:01.973Z,76.70
2018-12-05T23:13:33.154Z,76.80
2018-12-05T23:16:04.576Z,77.20
2018-12-05T23:18:36.645Z,76.70
2018-12-05T23:21:08.670Z,77.20
2018-12-05T23:23:41.219Z,76.70
2018-12-05T23:26:12.990Z,76.70
2018-12-05T23:28:44.719Z,76.70
2018-12-05T23:31:19.106Z,77.20
2018-12-05T23:33:52.691Z,76.90
2018-12-05T23:36:27.517Z,76.90
2018-12-05T23:38:58.866Z,75.90
2018-12-05T23:41:30.869Z,75.40
2018-12-05T23:44:03.557Z,75.70
2018-12-05T23:46:38.282Z,75.90
2018-12-05T23:49:09.879Z,75.00
2018-12-05T23:51:41.707Z,75.90
2018-12-05T23:54:13.778Z,75.60
2018-12-05T23:56:45.234Z,75.00
2018-12-05T23:59:19.022Z,75.40
